sensor_id;sensor_type;location;lat;lon;timestamp;temperature;humidity
49321;DHT22;35817;44.498;0.166;2022-10-16T00:01:15;16.60;99.90
49321;DHT22;35817;44.498;0.166;2022-10-16T00:03:43;16.60;99.90
49321;DHT22;35817;44.498;0.166;2022-10-16T00:06:09;16.60;99.90
49321;DHT22;35817;44.498;0.166;2022-10-16T00:08:36;16.60;99.90
49321;DHT22;35817;44.498;0.166;2022-10-16T00:11:08;16.60;99.90
49321;DHT22;35817;44.498;0.166;2022-10-16T00:13:35;16.60;99.90
49321;DHT22;35817;44.498;0.166;2022-10-16T00:16:01;16.70;99.90
49321;DHT22;35817;44.498;0.166;2022-10-16T00:18:28;16.70;99.90
49321;DHT22;35817;44.498;0.166;2022-10-16T00:20:55;16.70;99.90
49321;DHT22;35817;44.498;0.166;2022-10-16T00:23:21;16.80;99.90
49321;DHT22;35817;44.498;0.166;2022-10-16T00:25:59;16.80;99.90
49321;DHT22;35817;44.498;0.166;2022-10-16T00:28:25;16.90;99.90
49321;DHT22;35817;44.498;0.166;2022-10-16T00:30:51;17.00;99.90
49321;DHT22;35817;44.498;0.166;2022-10-16T00:33:17;17.10;99.90
49321;DHT22;35817;44.498;0.166;2022-10-16T00:35:43;17.20;99.90
49321;DHT22;35817;44.498;0.166;2022-10-16T00:38:09;17.30;99.90
49321;DHT22;35817;44.498;0.166;2022-10-16T00:40:35;17.40;99.90
49321;DHT22;35817;44.498;0.166;2022-10-16T00:43:00;17.50;99.90
49321;DHT22;35817;44.498;0.166;2022-10-16T00:45:26;17.50;99.90
49321;DHT22;35817;44.498;0.166;2022-10-16T00:47:53;17.60;99.90
49321;DHT22;35817;44.498;0.166;2022-10-16T00:50:30;17.60;99.90
49321;DHT22;35817;44.498;0.166;2022-10-16T00:52:59;17.60;99.90
49321;DHT22;35817;44.498;0.166;2022-10-16T00:55:26;17.70;99.90
49321;DHT22;35817;44.498;0.166;2022-10-16T00:57:53;17.70;99.90
49321;DHT22;35817;44.498;0.166;2022-10-16T01:00:24;17.70;99.90
49321;DHT22;35817;44.498;0.166;2022-10-16T01:02:57;17.70;99.90
49321;DHT22;35817;44.498;0.166;2022-10-16T01:05:26;17.80;99.90
49321;DHT22;35817;44.498;0.166;2022-10-16T01:08:08;17.80;99.90
49321;DHT22;35817;44.498;0.166;2022-10-16T01:10:36;17.80;99.90
49321;DHT22;35817;44.498;0.166;2022-10-16T01:15:56;17.80;99.90
49321;DHT22;35817;44.498;0.166;2022-10-16T01:18:46;17.80;99.90
49321;DHT22;35817;44.498;0.166;2022-10-16T01:26:33;17.70;99.90
49321;DHT22;35817;44.498;0.166;2022-10-16T01:29:15;17.70;99.90
49321;DHT22;35817;44.498;0.166;2022-10-16T01:31:47;17.60;99.90
49321;DHT22;35817;44.498;0.166;2022-10-16T01:34:20;17.50;99.90
49321;DHT22;35817;44.498;0.166;2022-10-16T01:36:52;17.50;99.90
49321;DHT22;35817;44.498;0.166;2022-10-16T01:39:21;17.50;99.90
49321;DHT22;35817;44.498;0.166;2022-10-16T01:41:54;17.40;99.90
49321;DHT22;35817;44.498;0.166;2022-10-16T01:44:22;17.40;99.90
49321;DHT22;35817;44.498;0.166;2022-10-16T01:46:52;17.40;99.90
49321;DHT22;35817;44.498;0.166;2022-10-16T01:49:20;17.40;99.90
49321;DHT22;35817;44.498;0.166;2022-10-16T01:51:50;17.40;99.90
49321;DHT22;35817;44.498;0.166;2022-10-16T01:54:19;17.40;99.90
49321;DHT22;35817;44.498;0.166;2022-10-16T01:56:46;17.40;99.90
49321;DHT22;35817;44.498;0.166;2022-10-16T01:59:16;17.40;99.90
49321;DHT22;35817;44.498;0.166;2022-10-16T02:01:47;17.40;99.90
49321;DHT22;35817;44.498;0.166;2022-10-16T02:04:31;17.50;99.90
49321;DHT22;35817;44.498;0.166;2022-10-16T02:06:57;17.50;99.90
49321;DHT22;35817;44.498;0.166;2022-10-16T02:09:23;17.50;99.90
49321;DHT22;35817;44.498;0.166;2022-10-16T02:11:51;17.50;99.90
49321;DHT22;35817;44.498;0.166;2022-10-16T02:14:19;17.50;99.90
49321;DHT22;35817;44.498;0.166;2022-10-16T02:16:46;17.50;99.90
49321;DHT22;35817;44.498;0.166;2022-10-16T02:19:17;17.50;99.90
49321;DHT22;35817;44.498;0.166;2022-10-16T02:21:57;17.50;99.90
49321;DHT22;35817;44.498;0.166;2022-10-16T02:29:33;17.50;99.90
49321;DHT22;35817;44.498;0.166;2022-10-16T02:32:02;17.50;99.90
49321;DHT22;35817;44.498;0.166;2022-10-16T02:34:31;17.50;99.90
49321;DHT22;35817;44.498;0.166;2022-10-16T02:37:00;17.50;99.90
49321;DHT22;35817;44.498;0.166;2022-10-16T02:39:28;17.50;99.90
49321;DHT22;35817;44.498;0.166;2022-10-16T02:41:54;17.50;99.90
49321;DHT22;35817;44.498;0.166;2022-10-16T02:44:20;17.40;99.90
49321;DHT22;35817;44.498;0.166;2022-10-16T02:46:45;17.40;99.90
49321;DHT22;35817;44.498;0.166;2022-10-16T02:49:11;17.40;99.90
49321;DHT22;35817;44.498;0.166;2022-10-16T02:51:37;17.40;99.90
49321;DHT22;35817;44.498;0.166;2022-10-16T02:54:03;17.30;99.90
49321;DHT22;35817;44.498;0.166;2022-10-16T02:56:29;17.30;99.90
49321;DHT22;35817;44.498;0.166;2022-10-16T02:58:55;17.30;99.90
49321;DHT22;35817;44.498;0.166;2022-10-16T03:01:21;17.30;99.90
49321;DHT22;35817;44.498;0.166;2022-10-16T03:03:47;17.30;99.90
49321;DHT22;35817;44.498;0.166;2022-10-16T03:06:13;17.30;99.90
49321;DHT22;35817;44.498;0.166;2022-10-16T03:08:39;17.30;99.90
49321;DHT22;35817;44.498;0.166;2022-10-16T03:11:04;17.30;99.90
49321;DHT22;35817;44.498;0.166;2022-10-16T03:13:30;17.30;99.90
49321;DHT22;35817;44.498;0.166;2022-10-16T03:15:56;17.20;99.90
49321;DHT22;35817;44.498;0.166;2022-10-16T03:18:22;17.20;99.90
49321;DHT22;35817;44.498;0.166;2022-10-16T03:20:47;17.20;99.90
49321;DHT22;35817;44.498;0.166;2022-10-16T03:23:13;17.20;99.90
49321;DHT22;35817;44.498;0.166;2022-10-16T03:25:39;17.10;99.90
49321;DHT22;35817;44.498;0.166;2022-10-16T03:28:05;17.10;99.90
49321;DHT22;35817;44.498;0.166;2022-10-16T03:30:31;17.00;99.90
49321;DHT22;35817;44.498;0.166;2022-10-16T03:32:56;17.00;99.90
49321;DHT22;35817;44.498;0.166;2022-10-16T03:35:23;17.00;99.90
49321;DHT22;35817;44.498;0.166;2022-10-16T03:37:49;17.00;99.90
49321;DHT22;35817;44.498;0.166;2022-10-16T03:40:16;16.90;99.90
49321;DHT22;35817;44.498;0.166;2022-10-16T03:42:44;16.90;99.90
49321;DHT22;35817;44.498;0.166;2022-10-16T03:45:11;16.90;99.90
49321;DHT22;35817;44.498;0.166;2022-10-16T03:47:37;16.80;99.90
49321;DHT22;35817;44.498;0.166;2022-10-16T03:50:03;16.80;99.90
49321;DHT22;35817;44.498;0.166;2022-10-16T03:52:29;16.80;99.90
49321;DHT22;35817;44.498;0.166;2022-10-16T03:54:55;16.80;99.90
49321;DHT22;35817;44.498;0.166;2022-10-16T03:57:21;16.80;99.90
49321;DHT22;35817;44.498;0.166;2022-10-16T03:59:46;16.80;99.90
49321;DHT22;35817;44.498;0.166;2022-10-16T04:02:12;16.80;99.90
49321;DHT22;35817;44.498;0.166;2022-10-16T04:04:38;16.80;99.90
49321;DHT22;35817;44.498;0.166;2022-10-16T04:07:04;16.80;99.90
49321;DHT22;35817;44.498;0.166;2022-10-16T04:09:30;16.70;99.90
49321;DHT22;35817;44.498;0.166;2022-10-16T04:11:56;16.70;99.90
49321;DHT22;35817;44.498;0.166;2022-10-16T04:14:21;16.70;99.90
49321;DHT22;35817;44.498;0.166;2022-10-16T04:16:47;16.70;99.90
49321;DHT22;35817;44.498;0.166;2022-10-16T04:19:13;16.60;99.90
49321;DHT22;35817;44.498;0.166;2022-10-16T04:21:38;16.60;99.90
49321;DHT22;35817;44.498;0.166;2022-10-16T04:24:04;16.60;99.90
49321;DHT22;35817;44.498;0.166;2022-10-16T04:26:30;16.50;99.90
49321;DHT22;35817;44.498;0.166;2022-10-16T04:28:56;16.50;99.90
49321;DHT22;35817;44.498;0.166;2022-10-16T04:31:22;16.40;99.90
49321;DHT22;35817;44.498;0.166;2022-10-16T04:33:47;16.40;99.90
49321;DHT22;35817;44.498;0.166;2022-10-16T04:36:13;16.30;99.90
49321;DHT22;35817;44.498;0.166;2022-10-16T04:38:39;16.30;99.90
49321;DHT22;35817;44.498;0.166;2022-10-16T04:41:06;16.20;99.90
49321;DHT22;35817;44.498;0.166;2022-10-16T04:43:33;16.20;99.90
49321;DHT22;35817;44.498;0.166;2022-10-16T04:45:58;16.20;99.90
49321;DHT22;35817;44.498;0.166;2022-10-16T04:48:24;16.10;99.90
49321;DHT22;35817;44.498;0.166;2022-10-16T04:50:50;16.10;99.90
49321;DHT22;35817;44.498;0.166;2022-10-16T04:53:16;16.10;99.90
49321;DHT22;35817;44.498;0.166;2022-10-16T04:55:42;16.00;99.90
49321;DHT22;35817;44.498;0.166;2022-10-16T04:58:08;16.00;99.90
49321;DHT22;35817;44.498;0.166;2022-10-16T05:00:34;16.00;99.90
49321;DHT22;35817;44.498;0.166;2022-10-16T05:03:00;16.00;99.90
49321;DHT22;35817;44.498;0.166;2022-10-16T05:05:26;16.00;99.90
49321;DHT22;35817;44.498;0.166;2022-10-16T05:07:52;16.00;99.90
49321;DHT22;35817;44.498;0.166;2022-10-16T05:10:19;16.00;99.90
49321;DHT22;35817;44.498;0.166;2022-10-16T05:12:44;15.90;99.90
49321;DHT22;35817;44.498;0.166;2022-10-16T05:15:10;15.90;99.90
49321;DHT22;35817;44.498;0.166;2022-10-16T05:17:36;15.80;99.90
49321;DHT22;35817;44.498;0.166;2022-10-16T05:20:02;15.80;99.90
49321;DHT22;35817;44.498;0.166;2022-10-16T05:22:28;15.70;99.90
49321;DHT22;35817;44.498;0.166;2022-10-16T05:24:54;15.70;99.90
49321;DHT22;35817;44.498;0.166;2022-10-16T05:27:20;15.70;99.90
49321;DHT22;35817;44.498;0.166;2022-10-16T05:29:47;15.70;99.90
49321;DHT22;35817;44.498;0.166;2022-10-16T05:32:15;15.60;99.90
49321;DHT22;35817;44.498;0.166;2022-10-16T05:34:41;15.60;99.90
49321;DHT22;35817;44.498;0.166;2022-10-16T05:37:07;15.60;99.90
49321;DHT22;35817;44.498;0.166;2022-10-16T05:39:33;15.60;99.90
49321;DHT22;35817;44.498;0.166;2022-10-16T05:41:59;15.60;99.90
49321;DHT22;35817;44.498;0.166;2022-10-16T05:44:24;15.60;99.90
49321;DHT22;35817;44.498;0.166;2022-10-16T05:46:50;15.60;99.90
49321;DHT22;35817;44.498;0.166;2022-10-16T05:49:16;15.60;99.90
49321;DHT22;35817;44.498;0.166;2022-10-16T05:51:41;15.70;99.90
49321;DHT22;35817;44.498;0.166;2022-10-16T05:54:08;15.70;99.90
49321;DHT22;35817;44.498;0.166;2022-10-16T05:56:33;15.70;99.90
49321;DHT22;35817;44.498;0.166;2022-10-16T05:58:59;15.70;99.90
49321;DHT22;35817;44.498;0.166;2022-10-16T06:01:25;15.70;99.90
49321;DHT22;35817;44.498;0.166;2022-10-16T06:03:52;15.70;99.90
49321;DHT22;35817;44.498;0.166;2022-10-16T06:06:20;15.80;99.90
49321;DHT22;35817;44.498;0.166;2022-10-16T06:08:46;15.70;99.90
49321;DHT22;35817;44.498;0.166;2022-10-16T06:11:15;15.80;99.90
49321;DHT22;35817;44.498;0.166;2022-10-16T06:13:41;15.80;99.90
49321;DHT22;35817;44.498;0.166;2022-10-16T06:16:09;15.70;99.90
49321;DHT22;35817;44.498;0.166;2022-10-16T06:18:35;15.70;99.90
49321;DHT22;35817;44.498;0.166;2022-10-16T06:21:08;15.70;99.90
49321;DHT22;35817;44.498;0.166;2022-10-16T06:23:34;15.60;99.90
49321;DHT22;35817;44.498;0.166;2022-10-16T06:26:08;15.60;99.90
49321;DHT22;35817;44.498;0.166;2022-10-16T06:28:34;15.50;99.90
49321;DHT22;35817;44.498;0.166;2022-10-16T06:31:00;15.60;99.90
49321;DHT22;35817;44.498;0.166;2022-10-16T06:33:26;15.50;99.90
49321;DHT22;35817;44.498;0.166;2022-10-16T06:35:52;15.60;99.90
49321;DHT22;35817;44.498;0.166;2022-10-16T06:38:17;15.50;99.90
49321;DHT22;35817;44.498;0.166;2022-10-16T06:40:43;15.60;99.90
49321;DHT22;35817;44.498;0.166;2022-10-16T06:43:09;15.50;99.90
49321;DHT22;35817;44.498;0.166;2022-10-16T06:45:34;15.60;99.90
49321;DHT22;35817;44.498;0.166;2022-10-16T06:48:00;15.60;99.90
49321;DHT22;35817;44.498;0.166;2022-10-16T06:50:26;15.60;99.90
49321;DHT22;35817;44.498;0.166;2022-10-16T06:52:51;15.60;99.90
49321;DHT22;35817;44.498;0.166;2022-10-16T06:55:17;15.70;99.90
49321;DHT22;35817;44.498;0.166;2022-10-16T06:57:43;15.70;99.90
49321;DHT22;35817;44.498;0.166;2022-10-16T07:00:09;15.70;99.90
49321;DHT22;35817;44.498;0.166;2022-10-16T07:02:35;15.80;99.90
49321;DHT22;35817;44.498;0.166;2022-10-16T07:05:01;15.90;99.90
49321;DHT22;35817;44.498;0.166;2022-10-16T07:07:27;15.90;99.90
49321;DHT22;35817;44.498;0.166;2022-10-16T07:09:52;16.10;99.90
49321;DHT22;35817;44.498;0.166;2022-10-16T07:12:18;16.10;99.90
49321;DHT22;35817;44.498;0.166;2022-10-16T07:14:44;16.20;99.90
49321;DHT22;35817;44.498;0.166;2022-10-16T07:17:09;16.30;99.90
49321;DHT22;35817;44.498;0.166;2022-10-16T07:19:35;16.30;99.90
49321;DHT22;35817;44.498;0.166;2022-10-16T07:22:01;16.40;99.90
49321;DHT22;35817;44.498;0.166;2022-10-16T07:24:27;16.30;99.90
49321;DHT22;35817;44.498;0.166;2022-10-16T07:26:52;16.40;99.90
49321;DHT22;35817;44.498;0.166;2022-10-16T07:29:20;16.40;99.90
49321;DHT22;35817;44.498;0.166;2022-10-16T07:31:47;16.40;99.90
49321;DHT22;35817;44.498;0.166;2022-10-16T07:34:15;16.40;99.90
49321;DHT22;35817;44.498;0.166;2022-10-16T07:36:41;16.50;99.90
49321;DHT22;35817;44.498;0.166;2022-10-16T07:39:07;16.50;99.90
49321;DHT22;35817;44.498;0.166;2022-10-16T07:41:33;16.60;99.90
49321;DHT22;35817;44.498;0.166;2022-10-16T07:44:02;16.70;99.90
49321;DHT22;35817;44.498;0.166;2022-10-16T07:46:29;16.70;99.90
49321;DHT22;35817;44.498;0.166;2022-10-16T07:48:55;16.80;99.90
49321;DHT22;35817;44.498;0.166;2022-10-16T07:51:23;16.90;99.90
49321;DHT22;35817;44.498;0.166;2022-10-16T07:53:49;16.90;99.90
49321;DHT22;35817;44.498;0.166;2022-10-16T07:56:15;17.00;99.90
49321;DHT22;35817;44.498;0.166;2022-10-16T07:58:42;17.10;99.90
49321;DHT22;35817;44.498;0.166;2022-10-16T08:01:10;17.20;99.90
49321;DHT22;35817;44.498;0.166;2022-10-16T08:03:37;17.30;99.90
49321;DHT22;35817;44.498;0.166;2022-10-16T08:06:03;17.40;99.90
49321;DHT22;35817;44.498;0.166;2022-10-16T08:08:29;17.50;99.90
49321;DHT22;35817;44.498;0.166;2022-10-16T08:10:55;17.70;99.90
49321;DHT22;35817;44.498;0.166;2022-10-16T08:13:20;17.80;99.90
49321;DHT22;35817;44.498;0.166;2022-10-16T08:15:46;17.90;99.90
49321;DHT22;35817;44.498;0.166;2022-10-16T08:18:13;18.10;99.90
49321;DHT22;35817;44.498;0.166;2022-10-16T08:20:40;18.20;99.90
49321;DHT22;35817;44.498;0.166;2022-10-16T08:23:06;18.40;99.90
49321;DHT22;35817;44.498;0.166;2022-10-16T08:25:35;18.60;99.90
49321;DHT22;35817;44.498;0.166;2022-10-16T08:28:03;18.80;99.90
49321;DHT22;35817;44.498;0.166;2022-10-16T08:30:30;19.00;99.90
49321;DHT22;35817;44.498;0.166;2022-10-16T08:32:55;19.40;99.90
49321;DHT22;35817;44.498;0.166;2022-10-16T08:35:21;19.80;99.90
49321;DHT22;35817;44.498;0.166;2022-10-16T08:37:47;20.30;99.90
49321;DHT22;35817;44.498;0.166;2022-10-16T08:40:22;20.80;99.90
49321;DHT22;35817;44.498;0.166;2022-10-16T08:48:30;22.20;99.90
49321;DHT22;35817;44.498;0.166;2022-10-16T08:50:58;22.60;98.40
49321;DHT22;35817;44.498;0.166;2022-10-16T08:53:33;22.90;96.60
49321;DHT22;35817;44.498;0.166;2022-10-16T08:56:02;23.30;95.00
49321;DHT22;35817;44.498;0.166;2022-10-16T08:58:29;23.50;94.00
49321;DHT22;35817;44.498;0.166;2022-10-16T09:01:00;23.80;93.20
49321;DHT22;35817;44.498;0.166;2022-10-16T09:06:28;24.20;91.20
49321;DHT22;35817;44.498;0.166;2022-10-16T09:20:32;26.20;81.60
49321;DHT22;35817;44.498;0.166;2022-10-16T09:23:16;26.60;79.60
49321;DHT22;35817;44.498;0.166;2022-10-16T09:25:45;26.80;76.50
49321;DHT22;35817;44.498;0.166;2022-10-16T09:28:13;26.90;76.10
49321;DHT22;35817;44.498;0.166;2022-10-16T09:30:39;27.10;74.70
49321;DHT22;35817;44.498;0.166;2022-10-16T09:33:06;27.20;74.00
49321;DHT22;35817;44.498;0.166;2022-10-16T09:35:50;26.80;73.50
49321;DHT22;35817;44.498;0.166;2022-10-16T09:38:33;26.10;74.50
49321;DHT22;35817;44.498;0.166;2022-10-16T09:41:00;25.90;76.00
49321;DHT22;35817;44.498;0.166;2022-10-16T09:43:39;26.30;75.20
49321;DHT22;35817;44.498;0.166;2022-10-16T09:46:07;26.30;74.80
49321;DHT22;35817;44.498;0.166;2022-10-16T09:48:43;26.00;74.90
49321;DHT22;35817;44.498;0.166;2022-10-16T09:51:30;25.50;75.90
49321;DHT22;35817;44.498;0.166;2022-10-16T09:54:01;25.10;77.20
49321;DHT22;35817;44.498;0.166;2022-10-16T09:56:32;25.00;78.00
49321;DHT22;35817;44.498;0.166;2022-10-16T09:59:18;25.60;78.30
49321;DHT22;35817;44.498;0.166;2022-10-16T10:01:47;26.40;75.40
49321;DHT22;35817;44.498;0.166;2022-10-16T10:04:13;27.00;74.30
49321;DHT22;35817;44.498;0.166;2022-10-16T10:06:51;27.40;72.10
49321;DHT22;35817;44.498;0.166;2022-10-16T10:09:29;27.70;71.50
49321;DHT22;35817;44.498;0.166;2022-10-16T10:11:57;27.80;70.10
49321;DHT22;35817;44.498;0.166;2022-10-16T10:19:47;28.70;67.70
49321;DHT22;35817;44.498;0.166;2022-10-16T10:24:44;29.00;66.20
49321;DHT22;35817;44.498;0.166;2022-10-16T10:27:16;29.30;65.80
49321;DHT22;35817;44.498;0.166;2022-10-16T10:30:03;29.30;64.60
49321;DHT22;35817;44.498;0.166;2022-10-16T10:32:43;29.50;64.80
49321;DHT22;35817;44.498;0.166;2022-10-16T10:38:03;30.40;62.30
49321;DHT22;35817;44.498;0.166;2022-10-16T10:43:42;30.90;61.40
49321;DHT22;35817;44.498;0.166;2022-10-16T10:46:17;31.40;60.50
49321;DHT22;35817;44.498;0.166;2022-10-16T10:54:39;32.10;57.90
49321;DHT22;35817;44.498;0.166;2022-10-16T10:57:29;32.30;57.10
49321;DHT22;35817;44.498;0.166;2022-10-16T11:05:28;32.20;57.40
49321;DHT22;35817;44.498;0.166;2022-10-16T11:08:00;32.30;56.00
49321;DHT22;35817;44.498;0.166;2022-10-16T11:13:23;32.00;57.00
49321;DHT22;35817;44.498;0.166;2022-10-16T11:15:55;32.60;56.50
49321;DHT22;35817;44.498;0.166;2022-10-16T11:18:33;33.00;55.60
49321;DHT22;35817;44.498;0.166;2022-10-16T11:21:08;33.40;55.70
49321;DHT22;35817;44.498;0.166;2022-10-16T11:23:45;33.50;54.60
49321;DHT22;35817;44.498;0.166;2022-10-16T11:26:17;33.30;54.30
49321;DHT22;35817;44.498;0.166;2022-10-16T11:28:54;33.20;54.60
49321;DHT22;35817;44.498;0.166;2022-10-16T11:31:36;33.20;54.40
49321;DHT22;35817;44.498;0.166;2022-10-16T11:34:09;33.10;54.10
49321;DHT22;35817;44.498;0.166;2022-10-16T11:36:45;32.90;54.80
49321;DHT22;35817;44.498;0.166;2022-10-16T11:39:20;32.90;54.80
49321;DHT22;35817;44.498;0.166;2022-10-16T11:47:16;33.40;54.10
49321;DHT22;35817;44.498;0.166;2022-10-16T11:49:46;33.90;53.40
49321;DHT22;35817;44.498;0.166;2022-10-16T11:52:25;34.20;53.10
49321;DHT22;35817;44.498;0.166;2022-10-16T11:57:38;34.70;52.10
49321;DHT22;35817;44.498;0.166;2022-10-16T12:02:58;34.70;51.80
49321;DHT22;35817;44.498;0.166;2022-10-16T12:08:11;35.30;50.60
49321;DHT22;35817;44.498;0.166;2022-10-16T12:10:37;35.70;50.60
49321;DHT22;35817;44.498;0.166;2022-10-16T12:13:04;36.20;50.30
49321;DHT22;35817;44.498;0.166;2022-10-16T12:15:31;36.60;49.60
49321;DHT22;35817;44.498;0.166;2022-10-16T12:17:57;36.70;49.20
49321;DHT22;35817;44.498;0.166;2022-10-16T12:20:29;36.40;48.40
49321;DHT22;35817;44.498;0.166;2022-10-16T12:23:02;36.20;49.00
49321;DHT22;35817;44.498;0.166;2022-10-16T12:25:38;36.20;49.30
49321;DHT22;35817;44.498;0.166;2022-10-16T12:28:22;36.30;49.40
49321;DHT22;35817;44.498;0.166;2022-10-16T12:31:06;36.40;49.00
49321;DHT22;35817;44.498;0.166;2022-10-16T12:33:36;36.30;48.90
49321;DHT22;35817;44.498;0.166;2022-10-16T12:36:04;36.00;49.10
49321;DHT22;35817;44.498;0.166;2022-10-16T12:38:38;35.90;49.20
49321;DHT22;35817;44.498;0.166;2022-10-16T12:41:10;35.90;49.20
49321;DHT22;35817;44.498;0.166;2022-10-16T12:43:43;36.00;48.80
49321;DHT22;35817;44.498;0.166;2022-10-16T12:48:35;35.70;49.40
49321;DHT22;35817;44.498;0.166;2022-10-16T12:54:14;35.60;49.80
49321;DHT22;35817;44.498;0.166;2022-10-16T12:57:04;35.40;50.30
49321;DHT22;35817;44.498;0.166;2022-10-16T13:05:24;35.90;49.70
49321;DHT22;35817;44.498;0.166;2022-10-16T13:10:26;36.60;48.50
49321;DHT22;35817;44.498;0.166;2022-10-16T13:15:29;37.20;47.90
49321;DHT22;35817;44.498;0.166;2022-10-16T13:18:13;37.60;47.70
49321;DHT22;35817;44.498;0.166;2022-10-16T13:23:31;38.40;46.80
49321;DHT22;35817;44.498;0.166;2022-10-16T13:28:28;39.40;45.00
49321;DHT22;35817;44.498;0.166;2022-10-16T13:30:56;39.70;43.60
49321;DHT22;35817;44.498;0.166;2022-10-16T13:33:35;39.30;43.70
49321;DHT22;35817;44.498;0.166;2022-10-16T13:36:02;39.00;43.60
49321;DHT22;35817;44.498;0.166;2022-10-16T13:38:31;39.10;43.60
49321;DHT22;35817;44.498;0.166;2022-10-16T13:41:11;38.80;43.70
49321;DHT22;35817;44.498;0.166;2022-10-16T13:43:45;38.40;43.80
49321;DHT22;35817;44.498;0.166;2022-10-16T13:46:16;37.80;44.60
49321;DHT22;35817;44.498;0.166;2022-10-16T13:48:42;37.40;45.40
49321;DHT22;35817;44.498;0.166;2022-10-16T13:51:16;37.20;45.90
49321;DHT22;35817;44.498;0.166;2022-10-16T13:53:44;37.30;45.90
49321;DHT22;35817;44.498;0.166;2022-10-16T13:56:13;37.10;46.00
49321;DHT22;35817;44.498;0.166;2022-10-16T13:58:39;36.90;45.90
49321;DHT22;35817;44.498;0.166;2022-10-16T14:01:23;36.70;46.00
49321;DHT22;35817;44.498;0.166;2022-10-16T14:03:50;37.00;45.90
49321;DHT22;35817;44.498;0.166;2022-10-16T14:06:19;37.90;45.70
49321;DHT22;35817;44.498;0.166;2022-10-16T14:08:50;38.90;44.80
49321;DHT22;35817;44.498;0.166;2022-10-16T14:11:22;39.40;44.20
49321;DHT22;35817;44.498;0.166;2022-10-16T14:13:48;39.60;43.10
49321;DHT22;35817;44.498;0.166;2022-10-16T14:16:21;39.70;42.40
49321;DHT22;35817;44.498;0.166;2022-10-16T14:18:55;39.50;42.40
49321;DHT22;35817;44.498;0.166;2022-10-16T14:21:22;39.40;42.70
49321;DHT22;35817;44.498;0.166;2022-10-16T14:23:48;39.10;43.20
49321;DHT22;35817;44.498;0.166;2022-10-16T14:26:17;38.80;42.80
49321;DHT22;35817;44.498;0.166;2022-10-16T14:28:44;38.50;44.20
49321;DHT22;35817;44.498;0.166;2022-10-16T14:31:23;38.50;43.30
49321;DHT22;35817;44.498;0.166;2022-10-16T14:33:50;38.30;43.60
49321;DHT22;35817;44.498;0.166;2022-10-16T14:36:16;38.10;43.90
49321;DHT22;35817;44.498;0.166;2022-10-16T14:39:04;38.10;44.20
49321;DHT22;35817;44.498;0.166;2022-10-16T14:41:43;38.10;43.90
49321;DHT22;35817;44.498;0.166;2022-10-16T14:44:10;37.40;44.10
49321;DHT22;35817;44.498;0.166;2022-10-16T14:46:38;36.70;45.00
49321;DHT22;35817;44.498;0.166;2022-10-16T14:49:17;36.10;45.70
49321;DHT22;35817;44.498;0.166;2022-10-16T14:51:44;35.30;46.60
49321;DHT22;35817;44.498;0.166;2022-10-16T14:54:12;34.60;47.90
49321;DHT22;35817;44.498;0.166;2022-10-16T14:56:51;34.10;48.50
49321;DHT22;35817;44.498;0.166;2022-10-16T14:59:37;33.90;49.30
49321;DHT22;35817;44.498;0.166;2022-10-16T15:02:28;33.70;49.60
49321;DHT22;35817;44.498;0.166;2022-10-16T15:04:55;33.20;50.30
49321;DHT22;35817;44.498;0.166;2022-10-16T15:07:21;32.80;51.00
49321;DHT22;35817;44.498;0.166;2022-10-16T15:09:47;32.50;51.70
49321;DHT22;35817;44.498;0.166;2022-10-16T15:12:12;32.40;52.00
49321;DHT22;35817;44.498;0.166;2022-10-16T15:14:38;32.60;51.50
49321;DHT22;35817;44.498;0.166;2022-10-16T15:17:04;32.50;51.60
49321;DHT22;35817;44.498;0.166;2022-10-16T15:19:30;32.90;51.30
49321;DHT22;35817;44.498;0.166;2022-10-16T15:21:56;32.90;50.90
49321;DHT22;35817;44.498;0.166;2022-10-16T15:24:22;32.60;51.20
49321;DHT22;35817;44.498;0.166;2022-10-16T15:26:48;32.00;51.80
49321;DHT22;35817;44.498;0.166;2022-10-16T15:29:15;31.50;52.70
49321;DHT22;35817;44.498;0.166;2022-10-16T15:31:41;31.50;53.20
49321;DHT22;35817;44.498;0.166;2022-10-16T15:34:10;31.60;52.60
49321;DHT22;35817;44.498;0.166;2022-10-16T15:36:38;31.70;52.30
49321;DHT22;35817;44.498;0.166;2022-10-16T15:39:05;31.80;52.20
49321;DHT22;35817;44.498;0.166;2022-10-16T15:41:31;32.10;52.20
49321;DHT22;35817;44.498;0.166;2022-10-16T15:43:56;32.60;51.70
49321;DHT22;35817;44.498;0.166;2022-10-16T15:46:23;33.10;50.50
49321;DHT22;35817;44.498;0.166;2022-10-16T15:48:50;32.70;50.70
49321;DHT22;35817;44.498;0.166;2022-10-16T15:51:17;32.10;51.60
49321;DHT22;35817;44.498;0.166;2022-10-16T15:53:43;31.50;52.20
49321;DHT22;35817;44.498;0.166;2022-10-16T15:56:12;30.90;53.00
49321;DHT22;35817;44.498;0.166;2022-10-16T15:58:38;30.40;53.60
49321;DHT22;35817;44.498;0.166;2022-10-16T16:01:03;30.10;54.30
49321;DHT22;35817;44.498;0.166;2022-10-16T16:03:30;29.60;54.90
49321;DHT22;35817;44.498;0.166;2022-10-16T16:05:57;29.30;55.70
49321;DHT22;35817;44.498;0.166;2022-10-16T16:08:23;28.90;56.20
49321;DHT22;35817;44.498;0.166;2022-10-16T16:11:05;28.70;57.00
49321;DHT22;35817;44.498;0.166;2022-10-16T16:13:31;28.40;57.50
49321;DHT22;35817;44.498;0.166;2022-10-16T16:15:57;28.20;58.00
49321;DHT22;35817;44.498;0.166;2022-10-16T16:18:23;28.00;58.70
49321;DHT22;35817;44.498;0.166;2022-10-16T16:20:50;27.80;59.10
49321;DHT22;35817;44.498;0.166;2022-10-16T16:23:16;27.70;59.60
49321;DHT22;35817;44.498;0.166;2022-10-16T16:25:42;27.50;59.80
49321;DHT22;35817;44.498;0.166;2022-10-16T16:28:08;27.40;60.30
49321;DHT22;35817;44.498;0.166;2022-10-16T16:30:36;27.20;61.10
49321;DHT22;35817;44.498;0.166;2022-10-16T16:33:02;27.10;61.30
49321;DHT22;35817;44.498;0.166;2022-10-16T16:35:27;26.90;61.80
49321;DHT22;35817;44.498;0.166;2022-10-16T16:37:53;26.80;62.00
49321;DHT22;35817;44.498;0.166;2022-10-16T16:40:18;26.70;62.20
49321;DHT22;35817;44.498;0.166;2022-10-16T16:42:46;26.60;62.80
49321;DHT22;35817;44.498;0.166;2022-10-16T16:45:12;26.50;63.30
49321;DHT22;35817;44.498;0.166;2022-10-16T16:47:38;26.40;63.70
49321;DHT22;35817;44.498;0.166;2022-10-16T16:50:04;26.30;64.30
49321;DHT22;35817;44.498;0.166;2022-10-16T16:52:30;26.20;64.50
49321;DHT22;35817;44.498;0.166;2022-10-16T16:54:56;26.10;64.80
49321;DHT22;35817;44.498;0.166;2022-10-16T16:57:21;25.90;65.30
49321;DHT22;35817;44.498;0.166;2022-10-16T16:59:49;25.80;65.30
49321;DHT22;35817;44.498;0.166;2022-10-16T17:02:15;25.70;65.90
49321;DHT22;35817;44.498;0.166;2022-10-16T17:04:41;25.50;66.30
49321;DHT22;35817;44.498;0.166;2022-10-16T17:07:06;25.40;67.30
49321;DHT22;35817;44.498;0.166;2022-10-16T17:09:32;25.30;66.90
49321;DHT22;35817;44.498;0.166;2022-10-16T17:11:58;25.20;67.10
49321;DHT22;35817;44.498;0.166;2022-10-16T17:14:24;25.10;67.20
49321;DHT22;35817;44.498;0.166;2022-10-16T17:16:51;25.00;67.30